Tiempo atmosférico en la estación meteorológica de Bailo, Huesca (722 m.)



Fecha
DESCASC
Temp. máxima en grados centígrados (hora)
DESCASC
Temp. mínima en grados centígrados (hora)
DESCASC
Temp. media en grados centígrados
DESCASC
Racha de viento máxima en m/sg (hora)
DESCASC
Velocidad máxima media en intervalos de 10 minutos(hora)
DESCASC
Precipitaciones diarias en mm
DESCASC
Precipitaciones de 00:00 a 06:00 en mm
DESCASC
Precipitaciones de 06:00 a 12:00 en mm
DESCASC
Precipitaciones de 12:00 a 18:00 en mm
DESCASC
Precipitaciones de 18:00 a 24:00 en mm
DESCASC
18-02-2018 10.7 (13:40) 0.7 (07:40) 5.7 14.72 (14:40) 10.28 (14:50) 0 0 0 0 0
17-02-2018 10.9 (13:40) 4.1 (23:30) 7.5 17.5 (17:10) 11.94 (16:30) 0 0 0 0 0
16-02-2018 15.9 (14:30) 5.7 (08:30) 10.8 7.5 (15:40) 5 (16:50) 0 0 0 0 0
15-02-2018 14.2 (15:10) 4.5 (00:00) 9.3 5 (15:40) 2.5 (15:50) 0 0 0 0 0
14-02-2018 4.9 (22:20) -0.6 (-00:0) 2.2 1.94 (03:10) 1.67 (03:50) 14.4 0.4 2.4 10 1.6
13-02-2018 0.5 (14:40) -5.9 (-00:0) -2.7 6.39 (11:00) 4.72 (10:40) 2.8 0 0.2 1.4 1.2
12-02-2018 6.3 (13:50) -1.7 (-00:0) 2.3 13.33 (17:00) 9.72 (17:00) 0 0 0 0 0
11-02-2018 11.3 (12:50) 2.7 (00:00) 7 11.39 (00:20) 8.61 (00:20) 2.8 0.4 0.2 2 0.2
10-02-2018 6.5 (15:10) -0.4 (00:00) 3 18.33 (16:30) 13.06 (16:50) 0 0 0 0 0
09-02-2018 6.6 (16:00) -6.4 (-00:0) 0.1 15 (22:50) 11.11 (23:10) 0 0 0 0 0
08-02-2018 4 (14:40) -2.1 (-00:0) 1 16.11 (16:40) 11.94 (16:40) 0 0 0 0 0
07-02-2018 3.7 (13:20) -1.2 (-00:0) 1.3 16.67 (12:40) 11.11 (15:10) 0 0 0 0 0
06-02-2018 2.4 (15:00) -0.8 (-00:0) 0.8 14.72 (16:20) 10 (21:50) 0.3 0.3 0 0 0
05-02-2018 1.5 (11:40) 0 (00:00) 0.8 3.61 (01:30) 2.78 (02:40) 5.2 0.4 0.2 4.2 0.4
04-02-2018 3.2 (12:20) 0 (00:00) 1.6 5.28 (02:00) 3.61 (02:00) 7.8 0.2 0 2.2 5.4
03-02-2018 4.2 (12:20) 0.1 (00:00) 2.1 12.22 (02:50) 8.89 (03:10) 2 0 0 1.8 0.2
02-02-2018 5.2 (14:40) -1.5 (-00:0) 1.8 16.39 (15:20) 12.22 (15:20) 0 0 0 0 0
01-02-2018 7.1 (12:50) 0.3 (00:00) 3.7 13.89 (14:10) 9.44 (14:50) 0 0 0 0 0
31-01-2018 13.8 (14:40) -1 (-00:0) 6.4 4.17 (15:00) 2.5 (15:00) 0 0 0 0 0
30-01-2018 13.8 (16:40) -0.4 (00:00) 6.7 3.61 (18:10) 2.78 (17:50) 0 0 0 0 0
29-01-2018 13.4 (15:20) -0.9 (-00:0) 6.2 2.78 (15:30) 1.94 (20:10) 0 0 0 0 0
28-01-2018 13.3 (17:00) -2.2 (-00:0) 5.6 4.72 (17:30) 3.33 (17:20) 0 0 0 0 0
27-01-2018 8.6 (14:50) 0 (00:00) 4.3 14.44 (00:30) 10 (05:30) 0 0 0 0 0
26-01-2018 5.6 (14:40) 2.8 (00:00) 4.2 16.39 (12:00) 11.39 (10:40) 0.2 0 0.2 0 0
25-01-2018 10 (14:00) 3.9 (00:00) 7 12.5 (23:50) 9.17 (23:40) 2.2 0 0 0 2.2
24-01-2018 15.5 (15:10) 2.1 (00:00) 8.8 10.28 (16:30) 7.22 (05:30) 0 0 0 0 0
23-01-2018 16.8 (16:20) 5.9 (00:00) 11.3 10.56 (05:00) 7.78 (01:10) 0 0 0 0 0
22-01-2018 13.7 (13:50) 8.4 (00:00) 11 13.61 (02:10) 10 (01:50) 0 0 0 0 0

Gráficas

Temp. máximas Temp. mínimas Temp. medias Precipitaciones Rachas de viento máximas Velocidades máximas media en intervalos de 10 minutos

Datos horarios

Fecha y hora oficial Temperatura (ºC) Velocidad del viento (km/h) Dirección del viento Racha (km/h) Dirección de racha Precipitación (mm) Presión (hPa) Tendencia (hPa) Humedad (%)
2018-02-20 23:00:00 6.4 34 Noroeste 54 Noroeste 0 -- -- 71
2018-02-20 22:00:00 6.5 41 Noroeste 57 Noroeste 0 -- -- 72
2018-02-20 21:00:00 6.3 41 Noroeste 54 Noroeste 0 -- -- 72
2018-02-20 20:00:00 6.1 37 Noroeste 60 Noroeste 0 -- -- 71
2018-02-20 19:00:00 6.6 41 Noroeste 59 Noroeste 0 -- -- 69
2018-02-20 18:00:00 7.4 41 Noroeste 58 Noroeste 0 -- -- 70
2018-02-20 17:00:00 8.8 33 Noroeste 53 Noroeste 0 -- -- 66
2018-02-20 16:00:00 9.8 39 Noroeste 58 Noroeste 0 -- -- 64
2018-02-20 15:00:00 9.5 32 Noroeste 55 Noroeste 0 -- -- 65
2018-02-20 14:00:00 10 33 Noroeste 58 Noroeste 0 -- -- 64
2018-02-20 13:00:00 9.4 43 Noroeste 62 Noroeste 0 -- -- 64
2018-02-20 12:00:00 9.5 40 Noroeste 60 Noroeste 0 -- -- 68
2018-02-20 11:00:00 8.7 36 Noroeste 52 Noroeste 0 -- -- 68
2018-02-20 10:00:00 8 37 Noroeste 50 Noroeste 0 -- -- 73
2018-02-20 09:00:00 8.1 31 Noroeste 55 Noroeste 0 -- -- 73
2018-02-20 08:00:00 7.8 35 Noroeste 56 Oeste 0 -- -- 73
2018-02-20 07:00:00 8.3 40 Noroeste 58 Noroeste 0 -- -- 73
2018-02-20 06:00:00 8.2 35 Noroeste 50 Noroeste 0 -- -- 74
2018-02-20 05:00:00 8.3 37 Noroeste 50 Noroeste 0 -- -- 74
2018-02-20 04:00:00 8.2 36 Noroeste 49 Noroeste 0 -- -- 74
2018-02-20 03:00:00 8.1 35 Noroeste 48 Oeste 0 -- -- 74
2018-02-20 02:00:00 8 31 Noroeste 45 Noroeste 0 -- -- 75
2018-02-20 01:00:00 7.9 33 Noroeste 45 Noroeste 0 -- -- 75
2018-02-20 00:00:00 8.1 33 Noroeste 48 Noroeste 0 -- -- 74
2018-02-19 23:00:00 8 32 Noroeste 46 Noroeste 0 -- -- 75
2018-02-19 22:00:00 8.1 34 Noroeste 46 Noroeste 0 -- -- 75
2018-02-19 21:00:00 8.3 31 Noroeste 42 Noroeste 0 -- -- 76
2018-02-19 20:00:00 8 20 Noroeste 38 Noroeste 0 -- -- 78
2018-02-19 19:00:00 8.5 21 Noroeste 37 Noroeste 0 -- -- 77
2018-02-19 18:00:00 8.9 28 Noroeste 43 Noroeste 0 -- -- 76
2018-02-19 17:00:00 11.1 26 Noroeste 43 Noroeste 0 -- -- 69
2018-02-19 16:00:00 10.6 30 Noroeste 49 Noroeste 0 -- -- 72
2018-02-19 15:00:00 10.2 30 Noroeste 45 Noroeste 0 -- -- 72
2018-02-19 14:00:00 10.5 26 Noroeste 41 Noroeste 0 -- -- 71
2018-02-19 13:00:00 10.5 22 Noroeste 35 Noroeste 0 -- -- 70
2018-02-19 12:00:00 10.4 21 Noroeste 36 Noroeste 0 -- -- 69
2018-02-19 11:00:00 9.6 21 Noroeste 35 Noroeste 0 -- -- 69
2018-02-19 10:00:00 8.3 13 Noroeste 25 Noroeste 0 -- -- 76
2018-02-19 09:00:00 7.1 12 Noroeste 23 Oeste 0 -- -- 81
2018-02-19 08:00:00 5.8 18 Oeste 25 Noroeste 0 -- -- 83
2018-02-19 07:00:00 6.2 21 Noroeste 30 Noroeste 0 -- -- 81
2018-02-19 06:00:00 6.3 21 Noroeste 34 Noroeste 0 -- -- 80
2018-02-19 05:00:00 6.5 28 Noroeste 37 Noroeste 0 -- -- 79
2018-02-19 04:00:00 5.9 23 Noroeste 31 Noroeste 0 -- -- 80
2018-02-19 03:00:00 5.8 21 Noroeste 35 Noroeste 0 -- -- 80
2018-02-19 02:00:00 5.6 18 Noroeste 32 Noroeste 0 -- -- 79
2018-02-19 01:00:00 5.9 22 Noroeste 35 Noroeste 0 -- -- 78
2018-02-19 00:00:00 6.2 22 Noroeste 39 Noroeste 0 -- -- 78
2018-02-18 23:00:00 6.8 30 Noroeste 42 Noroeste 0 -- -- 74
2018-02-18 22:00:00 7.2 22 Noroeste 32 Noroeste 0 -- -- 76
2018-02-18 21:00:00 6.8 19 Noroeste 33 Noroeste 0 -- -- 79
2018-02-18 20:00:00 7.1 18 Noroeste 30 Noroeste 0 -- -- 77
2018-02-18 19:00:00 7.5 21 Noroeste 33 Noroeste 0 -- -- 75
2018-02-18 18:00:00 7.9 22 Noroeste 36 Noroeste 0 -- -- 72
2018-02-18 17:00:00 8.6 24 Noroeste 44 Noroeste 0 -- -- 70
2018-02-18 16:00:00 8.7 26 Noroeste 51 Noroeste 0 -- -- 68
2018-02-18 15:00:00 8.8 37 Noroeste 53 Noroeste 0 -- -- 60
2018-02-18 14:00:00 10.2 30 Noroeste 43 Noroeste 0 -- -- 50
2018-02-18 13:00:00 10.2 23 Noroeste 37 Noroeste 0 -- -- 44
2018-02-18 12:00:00 8.3 8 Noroeste 16 Noroeste 0 -- -- 49
2018-02-18 11:00:00 6.4 4 Este 9 Este 0 -- -- 57
2018-02-18 10:00:00 5.2 6 Este 8 Sudeste 0 -- -- 61
2018-02-18 09:00:00 3.4 3 Sur 7 Sudeste 0 -- -- 67
2018-02-18 08:00:00 1 2 Sur 6 Sudoeste 0 -- -- 74
2018-02-18 07:00:00 1.2 0 Calma 5 Noroeste 0 -- -- 75
2018-02-18 06:00:00 1.7 4 Noroeste 10 Noroeste 0 -- -- 74
2018-02-18 05:00:00 2 4 Noroeste 9 Noroeste 0 -- -- 74
2018-02-18 04:00:00 2 4 Oeste 12 Noroeste 0 -- -- 77
2018-02-18 03:00:00 2.5 9 Noroeste 17 Noroeste 0 -- -- 73
2018-02-18 02:00:00 3.1 14 Oeste 24 Noroeste 0 -- -- 71
2018-02-18 01:00:00 3.9 19 Noroeste 28 Noroeste 0 -- -- 72
2018-02-18 00:00:00 4.1 20 Noroeste 33 Noroeste 0 -- -- 70
2018-02-17 23:00:00 4.5 26 Noroeste 36 Noroeste 0 -- -- 69
2018-02-17 22:00:00 4.7 28 Noroeste 46 Noroeste 0 -- -- 69
2018-02-17 21:00:00 5 32 Noroeste 48 Noroeste 0 -- -- 70
2018-02-17 20:00:00 5.2 28 Noroeste 46 Noroeste 0 -- -- 70
2018-02-17 19:00:00 5.6 32 Noroeste 51 Noroeste 0 -- -- 69
2018-02-17 18:00:00 7.2 37 Noroeste 63 Noroeste 0 -- -- 64
2018-02-17 17:00:00 8.8 38 Noroeste 62 Noroeste 0 -- -- 58
2018-02-17 16:00:00 9.4 39 Noroeste 60 Noroeste 0 -- -- 57
2018-02-17 15:00:00 10.4 39 Noroeste 60 Noroeste 0 -- -- 58
2018-02-17 14:00:00 10.8 35 Noroeste 52 Noroeste 0 -- -- 59
2018-02-17 13:00:00 10.1 35 Noroeste 49 Noroeste 0 -- -- 57
2018-02-17 12:00:00 9.7 30 Noroeste 45 Noroeste 0 -- -- 64
2018-02-17 11:00:00 8.9 26 Noroeste 41 Noroeste 0 -- -- 67
2018-02-17 10:00:00 8.4 25 Noroeste 39 Noroeste 0 -- -- 71
2018-02-17 09:00:00 8.2 17 Noroeste 27 Noroeste 0 -- -- 78
2018-02-17 08:00:00 8.3 23 Noroeste 31 Noroeste 0 -- -- 80
2018-02-17 07:00:00 8.2 10 Noroeste 32 Noroeste 0 -- -- 94
2018-02-17 06:00:00 7.8 3 Sudeste 8 Noroeste 0 -- -- 95
2018-02-17 05:00:00 7.9 2 Sudeste 6 Nordeste 0 -- -- 94
2018-02-17 04:00:00 8.2 4 Oeste 7 Este 0 -- -- 94
2018-02-17 03:00:00 8.6 5 Noroeste 7 Norte 0 -- -- 93
2018-02-17 02:00:00 8.4 3 Oeste 8 Sur 0 -- -- 92
2018-02-17 01:00:00 9.3 4 Noroeste 15 Sudeste 0 -- -- 90
2018-02-17 00:00:00 9.6 9 Sudeste 14 Sudeste 0 -- -- 91
2018-02-16 23:00:00 10.1 8 Sur 19 Sur 0 -- -- 89
2018-02-16 22:00:00 10.6 10 Sudeste 17 Este 0 -- -- 87
2018-02-16 21:00:00 11.3 3 Nordeste 21 Sur 0 -- -- 84
2018-02-16 20:00:00 12.1 13 Sur 23 Sur 0 -- -- 79
2018-02-16 19:00:00 12.5 12 Sur 17 Sur 0 -- -- 76
2018-02-16 18:00:00 14.3 8 Sudoeste 24 Sur 0 -- -- 69
2018-02-16 17:00:00 14.5 18 Sur 25 Sur 0 -- -- 66
2018-02-16 16:00:00 15.4 14 Sur 27 Sur 0 -- -- 64
2018-02-16 15:00:00 15.4 12 Sur 24 Sur 0 -- -- 65
2018-02-16 14:00:00 15.3 13 Sur 21 Sur 0 -- -- 64
2018-02-16 13:00:00 14.5 14 Sur 21 Sudoeste 0 -- -- 69
2018-02-16 12:00:00 13.1 5 Este 9 Este 0 -- -- 81
2018-02-16 11:00:00 10.2 4 Este 8 Norte 0 -- -- 97
2018-02-16 10:00:00 7.5 2 Este 4 Sudeste 0 -- -- 97
2018-02-16 09:00:00 6.6 0 Calma 8 Norte 0 -- -- 97
2018-02-16 08:00:00 6.7 2 Sudeste 5 Sudoeste 0 -- -- 96
2018-02-16 07:00:00 6.6 2 Sur 6 Sudeste 0 -- -- 97
2018-02-16 06:00:00 6.4 0 Calma 5 Oeste 0 -- -- 96
2018-02-16 05:00:00 6.4 3 Nordeste 5 Sudoeste 0 -- -- 94
2018-02-16 04:00:00 7 2 Sur 6 Sudeste 0 -- -- 94
2018-02-16 03:00:00 7.8 2 Nordeste 5 Oeste 0 -- -- 93
2018-02-16 02:00:00 8.2 3 Oeste 5 Oeste 0 -- -- 92
2018-02-16 01:00:00 8.2 3 Sudoeste 7 Norte 0 -- -- 93
2018-02-16 00:00:00 8.6 5 Nordeste 10 Sudoeste 0 -- -- 88
2018-02-15 23:00:00 9.1 5 Sudeste 8 Sudeste 0 -- -- 88
2018-02-15 22:00:00 9.6 3 Sudoeste 9 Sudoeste 0 -- -- 86
2018-02-15 21:00:00 10.1 4 Sur 6 Sudoeste 0 -- -- 85
2018-02-15 20:00:00 10.4 3 Oeste 6 Sur 0 -- -- 83
2018-02-15 19:00:00 11.3 5 Sudoeste 10 Sudoeste 0 -- -- 82
2018-02-15 18:00:00 12.6 2 Nordeste 5 Nordeste 0 -- -- 76
2018-02-15 17:00:00 12.9 3 Norte 10 Norte 0 -- -- 75
2018-02-15 16:00:00 13.4 7 Noroeste 18 Noroeste 0 -- -- 71
2018-02-15 15:00:00 14 4 Nordeste 10 Este 0 -- -- 72
2018-02-15 14:00:00 13.2 6 Este 9 Este 0 -- -- 74
2018-02-15 13:00:00 12.3 5 Nordeste 10 Este 0 -- -- 77
2018-02-15 12:00:00 11 3 Sudeste 8 Nordeste 0 -- -- 81
2018-02-15 11:00:00 8.9 2 Noroeste 8 Este 0 -- -- 91
2018-02-15 10:00:00 6.7 3 Oeste 7 Sudeste 0 -- -- 97
2018-02-15 09:00:00 5.9 3 Noroeste 5 Oeste 0 -- -- 98
2018-02-15 08:00:00 5.5 2 Sur 6 Este 0 -- -- 98
2018-02-15 07:00:00 5.2 4 Sudeste 5 Noroeste 0 -- -- 98
2018-02-15 06:00:00 4.8 3 Noroeste 5 Noroeste 0 -- -- 98
2018-02-15 05:00:00 5.8 2 Sur 7 Sudeste 0 -- -- 98
2018-02-15 04:00:00 5.2 4 Sudeste 9 Este 0 -- -- 98
2018-02-15 03:00:00 5.4 3 Nordeste 6 Sudeste 0 -- -- 98
2018-02-15 02:00:00 4.8 3 Sudeste 5 Sudeste 0 -- -- 98
2018-02-15 01:00:00 4.8 2 Norte 4 Noroeste 0 -- -- 98
2018-02-15 00:00:00 4.5 2 Sudoeste 5 Este 0 -- -- 98
2018-02-14 23:00:00 4.4 6 Oeste 7 Oeste 0 -- -- 98
2018-02-14 22:00:00 4.6 3 Sudoeste 5 Este 0 -- -- 98
2018-02-14 21:00:00 4.3 3 Sur 7 Este 0 -- -- 98
2018-02-14 20:00:00 4.5 4 Oeste 5 Sudoeste 0.6 -- -- 98
2018-02-14 19:00:00 4.6 0 Calma 5 Noroeste 1 -- -- 98
2018-02-14 18:00:00 4.7 4 Norte 5 Norte 1.2 -- -- 98
2018-02-14 17:00:00 4.6 2 Este 5 Oeste 1.4 -- -- 97
2018-02-14 16:00:00 4.6 2 Norte 6 Oeste 1.6 -- -- 98
2018-02-14 15:00:00 3.8 0 Calma 4 Oeste 2.2 -- -- 97
2018-02-14 14:00:00 3.4 0 Calma 5 Oeste 2.4 -- -- 97
2018-02-14 13:00:00 2.7 2 Norte 5 Nordeste 1.2 -- -- 97
2018-02-14 12:00:00 2.1 0 Calma 4 Este 1.4 -- -- 97
2018-02-14 11:00:00 1.6 0 Calma 3 Nordeste 0.6 -- -- 97
2018-02-14 10:00:00 1.1 0 Calma 2 Este 0.4 -- -- 97
2018-02-14 09:00:00 0.7 0 Calma 4 Oeste 0 -- -- 97
2018-02-14 08:00:00 0.7 0 Calma 4 Nordeste 0 -- -- 97
2018-02-14 07:00:00 0.5 0 Calma 5 Sudeste 0 -- -- 97
2018-02-14 06:00:00 1 5 Sudeste 6 Sudeste 0.2 -- -- 97
2018-02-14 05:00:00 0.5 2 Sur 5 Nordeste 0 -- -- 97
2018-02-14 04:00:00 0.2 4 Oeste 7 Sudoeste 0 -- -- 97
2018-02-14 03:00:00 -0.1 0 Calma 6 Sudeste 0 -- -- 97
2018-02-14 02:00:00 0 4 Sudeste 5 Sur 0.2 -- -- 97
2018-02-14 01:00:00 -0.4 3 Sudoeste 7 Sudeste 0 -- -- 97
2018-02-14 00:00:00 -0.2 3 Sudeste 6 Este 0 -- -- 97
2018-02-13 23:00:00 -0.4 2 Sudeste 4 Este 0 -- -- 96
2018-02-13 22:00:00 -0.5 2 Este 6 Sudeste 0 -- -- 96
2018-02-13 21:00:00 -0.4 0 Calma 4 Oeste 0.6 -- -- 95
2018-02-13 20:00:00 -0.4 2 Este 4 Noroeste 0.4 -- -- 95
2018-02-13 19:00:00 -0.3 2 Noroeste 6 Noroeste 0.2 -- -- 94
2018-02-13 18:00:00 -0.1 5 Noroeste 8 Noroeste 0 -- -- 93
2018-02-13 17:00:00 0 3 Oeste 10 Sudeste 0 -- -- 92
2018-02-13 16:00:00 -0.1 3 Sudeste 8 Sudeste 0 -- -- 90
2018-02-13 15:00:00 0.2 5 Este 10 Sudeste 0.4 -- -- 88
2018-02-13 14:00:00 -0.3 3 Sudeste 6 Oeste 0.2 -- -- 89
2018-02-13 13:00:00 -1.5 3 Oeste 9 Este 0.8 -- -- 89
2018-02-13 12:00:00 -1.5 2 Este 21 Sur 0.2 -- -- 83
2018-02-13 11:00:00 -1.1 15 Sur 23 Sur 0 -- -- 64
2018-02-13 10:00:00 -2 12 Sur 19 Sur 0 -- -- 66
2018-02-13 09:00:00 -3.3 10 Sur 17 Sur 0 -- -- 74
2018-02-13 08:00:00 -5.9 6 Sudeste 9 Este 0 -- -- 85
2018-02-13 07:00:00 -4.9 3 Este 9 Oeste 0 -- -- 83
2018-02-13 06:00:00 -4.2 4 Sudeste 10 Sudeste 0 -- -- 79
2018-02-13 05:00:00 -4.8 3 Oeste 8 Sudeste 0 -- -- 85
2018-02-13 04:00:00 -3.9 0 Calma 9 Sudoeste 0 -- -- 79
2018-02-13 03:00:00 -3.1 4 Oeste 11 Sudoeste 0 -- -- 77
2018-02-13 02:00:00 -3 2 Sudoeste 6 Sudoeste 0 -- -- 71
2018-02-13 01:00:00 -1.8 4 Sudeste 9 Noroeste 0 -- -- 66
2018-02-13 00:00:00 -1.4 11 Noroeste 19 Oeste 0 -- -- 64
2018-02-12 23:00:00 -1.3 6 Sudoeste 22 Noroeste 0 -- -- 62
2018-02-12 22:00:00 -0.5 17 Noroeste 28 Noroeste 0 -- -- 58
2018-02-12 21:00:00 0 21 Noroeste 34 Noroeste 0 -- -- 57
2018-02-12 20:00:00 0.6 26 Noroeste 41 Noroeste 0 -- -- 57
2018-02-12 19:00:00 1.1 25 Noroeste 42 Noroeste 0 -- -- 56
2018-02-12 18:00:00 2.8 31 Noroeste 48 Noroeste 0 -- -- 50
2018-02-12 17:00:00 4.5 35 Noroeste 48 Noroeste 0 -- -- 42
2018-02-12 16:00:00 5.7 30 Noroeste 44 Noroeste 0 -- -- 41
2018-02-12 15:00:00 6.3 27 Noroeste 40 Noroeste 0 -- -- 42
2018-02-12 14:00:00 6.1 28 Noroeste 42 Noroeste 0 -- -- 45
2018-02-12 13:00:00 6.1 27 Noroeste 41 Noroeste 0 -- -- 50
2018-02-12 12:00:00 5.2 27 Noroeste 40 Noroeste 0 -- -- 55
2018-02-12 11:00:00 4.1 27 Noroeste 44 Noroeste 0 -- -- 61
2018-02-12 10:00:00 3.2 31 Noroeste 41 Noroeste 0 -- -- 67
2018-02-12 09:00:00 2.3 28 Noroeste 41 Noroeste 0 -- -- 71
2018-02-12 08:00:00 2 19 Noroeste 39 Noroeste 0 -- -- 74
2018-02-12 07:00:00 2.6 31 Noroeste 42 Noroeste 0 -- -- 77
2018-02-12 06:00:00 3 31 Noroeste 41 Noroeste 0 -- -- 76
2018-02-12 05:00:00 3 24 Noroeste 33 Noroeste 0 -- -- 80
2018-02-12 04:00:00 3.6 26 Noroeste 44 Noroeste 0 -- -- 79
2018-02-12 03:00:00 3.9 19 Noroeste 38 Noroeste 0 -- -- 77
2018-02-12 02:00:00 4.5 21 Noroeste 40 Noroeste 0 -- -- 77
2018-02-12 01:00:00 4.9 21 Noroeste 35 Noroeste 0 -- -- 78
2018-02-12 00:00:00 5.2 18 Noroeste 37 Noroeste 0 -- -- 80
2018-02-11 23:00:00 5.8 22 Noroeste 36 Noroeste 0.2 -- -- 81
2018-02-11 22:00:00 6.3 16 Noroeste 33 Noroeste 0 -- -- 81
2018-02-11 21:00:00 6.4 14 Noroeste 35 Noroeste 0 -- -- 89
2018-02-11 20:00:00 7.4 14 Noroeste 20 Noroeste 0 -- -- 91
2018-02-11 19:00:00 7.7 13 Noroeste 31 Noroeste 0 -- -- 90
2018-02-11 18:00:00 8 19 Noroeste 33 Noroeste 0.2 -- -- 87
2018-02-11 17:00:00 8.2 20 Noroeste 41 Noroeste 1 -- -- 87
2018-02-11 16:00:00 8.8 13 Noroeste 28 Norte 0.6 -- -- 88
2018-02-11 15:00:00 9.4 15 Noroeste 26 Noroeste 0 -- -- 83
2018-02-11 14:00:00 9.7 15 Noroeste 36 Noroeste 0.2 -- -- 85
2018-02-11 13:00:00 10.5 23 Noroeste 36 Noroeste 0 -- -- 78
2018-02-11 12:00:00 8.9 9 Norte 15 Norte 0 -- -- 93
2018-02-11 11:00:00 5.5 3 Este 10 Este 0 -- -- 97
2018-02-11 10:00:00 4.2 4 Sudeste 8 Este 0 -- -- 96
2018-02-11 09:00:00 3.3 2 Sudeste 6 Sudeste 0 -- -- 96
2018-02-11 08:00:00 2.8 0 Calma 5 Oeste 0.2 -- -- 95
2018-02-11 07:00:00 2.8 3 Oeste 6 Noroeste 0 -- -- 94
2018-02-11 06:00:00 2.7 0 Calma 9 Norte 0.2 -- -- 93
2018-02-11 05:00:00 3.5 8 Nordeste 23 Oeste 0.2 -- -- 88
2018-02-11 04:00:00 4.8 19 Oeste 32 Noroeste 0 -- -- 80
2018-02-11 03:00:00 5 22 Noroeste 36 Noroeste 0 -- -- 76
2018-02-11 02:00:00 4.6 20 Noroeste 36 Noroeste 0 -- -- 74
2018-02-11 01:00:00 4.8 26 Noroeste 41 Noroeste 0 -- -- 68
2018-02-11 00:00:00 4.1 28 Noroeste 40 Noroeste 0 -- -- 66
2018-02-10 23:00:00 3.5 26 Noroeste 37 Noroeste 0 -- -- 65
2018-02-10 22:00:00 3.4 29 Noroeste 40 Noroeste 0 -- -- 62
2018-02-10 21:00:00 2.9 32 Noroeste 60 Noroeste 0 -- -- 63
2018-02-10 20:00:00 3.2 43 Noroeste 60 Noroeste 0 -- -- 61
2018-02-10 19:00:00 3.3 38 Noroeste 55 Noroeste 0 -- -- 58
2018-02-10 18:00:00 4.1 39 Noroeste 60 Noroeste 0 -- -- 52
2018-02-10 17:00:00 5.4 45 Noroeste 66 Noroeste 0 -- -- 49
2018-02-10 16:00:00 5.9 38 Noroeste 55 Noroeste 0 -- -- 48
2018-02-10 15:00:00 6.4 31 Norte 55 Noroeste 0 -- -- 45
2018-02-10 14:00:00 5.9 34 Norte 55 Norte 0 -- -- 47
2018-02-10 13:00:00 4.9 30 Noroeste 48 Noroeste 0 -- -- 54
2018-02-10 12:00:00 3.8 30 Noroeste 43 Noroeste 0 -- -- 57
2018-02-10 11:00:00 2.8 26 Noroeste 37 Noroeste 0 -- -- 61
2018-02-10 10:00:00 2 26 Noroeste 39 Noroeste 0 -- -- 64
2018-02-10 09:00:00 0.7 24 Noroeste 37 Noroeste 0 -- -- 68
2018-02-10 08:00:00 -0.4 22 Noroeste 41 Noroeste 0 -- -- 73
2018-02-10 07:00:00 0.1 30 Noroeste 44 Noroeste 0 -- -- 68
2018-02-10 06:00:00 -0.1 24 Noroeste 45 Noroeste 0 -- -- 70
2018-02-10 05:00:00 0.3 30 Noroeste 44 Noroeste 0 -- -- 65
2018-02-10 04:00:00 -0.1 27 Noroeste 48 Noroeste 0 -- -- 72
2018-02-10 03:00:00 0.4 34 Noroeste 45 Noroeste 0 -- -- 67
2018-02-10 02:00:00 0.6 30 Noroeste 43 Noroeste 0 -- -- 61
2018-02-10 01:00:00 0.9 32 Noroeste 49 Noroeste 0 -- -- 65
2018-02-10 00:00:00 0.8 31 Noroeste 53 Noroeste 0 -- -- 69
2018-02-09 23:00:00 1.1 33 Noroeste 54 Noroeste 0 -- -- 69
2018-02-09 22:00:00 1.6 29 Noroeste 53 Noroeste 0 -- -- 72
2018-02-09 21:00:00 2.6 33 Noroeste 46 Noroeste 0 -- -- 71
2018-02-09 20:00:00 3.2 33 Noroeste 49 Noroeste 0 -- -- 69
2018-02-09 19:00:00 3.5 34 Noroeste 51 Noroeste 0 -- -- 73
2018-02-09 18:00:00 4.1 22 Noroeste 35 Noroeste 0 -- -- 74
2018-02-09 17:00:00 5.5 26 Noroeste 35 Noroeste 0 -- -- 64
2018-02-09 16:00:00 6.6 20 Noroeste 29 Noroeste 0 -- -- 55
2018-02-09 15:00:00 4.8 22 Noroeste 29 Noroeste 0 -- -- 53
2018-02-09 14:00:00 4.2 7 Nordeste 13 Este 0 -- -- 58
2018-02-09 13:00:00 3.3 4 Nordeste 10 Sudeste 0 -- -- 62
2018-02-09 12:00:00 1.1 5 Este 9 Este 0 -- -- 72
2018-02-09 11:00:00 -1.3 3 Sudeste 8 Noroeste 0 -- -- 81
2018-02-09 10:00:00 -3.8 5 Noroeste 10 Noroeste 0 -- -- 89
2018-02-09 09:00:00 -5 4 Oeste 6 Noroeste 0 -- -- 90
2018-02-09 08:00:00 -5.8 4 Noroeste 6 Noroeste 0 -- -- 91
2018-02-09 07:00:00 -5.9 2 Oeste 8 Sudeste 0 -- -- 88
2018-02-09 06:00:00 -5.7 2 Nordeste 5 Noroeste 0 -- -- 90
2018-02-09 05:00:00 -5.2 0 Calma 5 Sudeste 0 -- -- 86
2018-02-09 04:00:00 -4.8 3 Oeste 4 Oeste 0 -- -- 86
2018-02-09 03:00:00 -4.2 0 Calma 6 Sudeste 0 -- -- 85
2018-02-09 02:00:00 -3.6 3 Sudeste 6 Sur 0 -- -- 83
2018-02-09 01:00:00 -3.7 4 Oeste 11 Sudoeste 0 -- -- 82
2018-02-09 00:00:00 -2.1 7 Sur 13 Sur 0 -- -- 77
2018-02-08 23:00:00 -1.4 6 Sur 8 Sur 0 -- -- 75
2018-02-08 22:00:00 -1.3 4 Noroeste 14 Oeste 0 -- -- 74
2018-02-08 21:00:00 -1.2 9 Oeste 28 Noroeste 0 -- -- 72
2018-02-08 20:00:00 -0.5 21 Noroeste 39 Noroeste 0 -- -- 70
2018-02-08 19:00:00 -0.4 22 Noroeste 49 Noroeste 0 -- -- 70
2018-02-08 18:00:00 0.3 35 Noroeste 58 Noroeste 0 -- -- 67
2018-02-08 17:00:00 1.9 38 Noroeste 58 Noroeste 0 -- -- 62
2018-02-08 16:00:00 3 37 Noroeste 52 Norte 0 -- -- 58
2018-02-08 15:00:00 3.9 34 Noroeste 54 Noroeste 0 -- -- 55
2018-02-08 14:00:00 3.6 36 Noroeste 50 Noroeste 0 -- -- 56
2018-02-08 13:00:00 2.9 33 Noroeste 50 Noroeste 0 -- -- 54
2018-02-08 12:00:00 2 32 Noroeste 52 Noroeste 0 -- -- 57
2018-02-08 11:00:00 0.6 35 Noroeste 55 Noroeste 0 -- -- 58
2018-02-08 10:00:00 -0.4 37 Noroeste 54 Noroeste 0 -- -- 60
2018-02-08 09:00:00 -0.4 28 Noroeste 41 Noroeste 0 -- -- 66
2018-02-08 08:00:00 -1.4 20 Noroeste 44 Noroeste 0 -- -- 72
2018-02-08 07:00:00 -0.8 29 Noroeste 42 Noroeste 0 -- -- 69
2018-02-08 06:00:00 -1.3 24 Noroeste 35 Noroeste 0 -- -- 71
2018-02-08 05:00:00 -0.7 23 Noroeste 36 Noroeste 0 -- -- 68
2018-02-08 04:00:00 -0.7 22 Noroeste 36 Noroeste 0 -- -- 71
2018-02-08 03:00:00 -1.2 26 Noroeste 33 Noroeste 0 -- -- 76
2018-02-08 02:00:00 -1.6 16 Noroeste 32 Noroeste 0 -- -- 71
2018-02-08 01:00:00 -1.3 22 Noroeste 36 Noroeste 0 -- -- 69
2018-02-08 00:00:00 -1.2 23 Noroeste 52 Noroeste 0 -- -- 64
2018-02-07 23:00:00 -1.1 36 Noroeste 51 Noroeste 0 -- -- 61
2018-02-07 22:00:00 -1.1 33 Noroeste 47 Noroeste 0 -- -- 62
2018-02-07 21:00:00 -1 32 Noroeste 45 Noroeste 0 -- -- 64
2018-02-07 20:00:00 -0.6 31 Noroeste 44 Noroeste 0 -- -- 65
2018-02-07 19:00:00 -0.2 30 Noroeste 46 Noroeste 0 -- -- 62
2018-02-07 18:00:00 0.1 32 Noroeste 52 Noroeste 0 -- -- 61
2018-02-07 17:00:00 1.2 33 Noroeste 51 Noroeste 0 -- -- 58
2018-02-07 16:00:00 2.5 35 Noroeste 55 Norte 0 -- -- 51
2018-02-07 15:00:00 2.6 40 Noroeste 59 Noroeste 0 -- -- 50
2018-02-07 14:00:00 3.1 38 Noroeste 54 Noroeste 0 -- -- 47
2018-02-07 13:00:00 3.5 30 Norte 60 Noroeste 0 -- -- 46
2018-02-07 12:00:00 2.6 39 Noroeste 54 Noroeste 0 -- -- 44
2018-02-07 11:00:00 2.3 31 Noroeste 42 Noroeste 0 -- -- 43
2018-02-07 10:00:00 1.7 28 Nordeste 44 Norte 0 -- -- 43
2018-02-07 09:00:00 -0.3 31 Noroeste 48 Noroeste 0 -- -- 53
2018-02-07 08:00:00 -0.5 27 Noroeste 43 Noroeste 0 -- -- 52
2018-02-07 07:00:00 -0.4 27 Noroeste 42 Noroeste 0 -- -- 52
2018-02-07 06:00:00 -0.9 28 Noroeste 39 Noroeste 0 -- -- 59
2018-02-07 05:00:00 -1.1 24 Noroeste 35 Noroeste 0 -- -- 59
2018-02-07 04:00:00 -0.8 27 Noroeste 40 Noroeste 0 -- -- 57
2018-02-07 03:00:00 -0.5 25 Noroeste 38 Noroeste 0 -- -- 57
2018-02-07 02:00:00 -0.8 28 Noroeste 37 Noroeste 0 -- -- 60
2018-02-07 01:00:00 -0.4 30 Noroeste 42 Noroeste 0 -- -- 58
2018-02-07 00:00:00 -0.2 33 Noroeste 43 Noroeste 0 -- -- 57
2018-02-06 23:00:00 -0.3 28 Noroeste 42 Noroeste 0 -- -- 61
2018-02-06 22:00:00 -0.4 33 Noroeste 53 Noroeste 0 -- -- 65
2018-02-06 21:00:00 -0.3 33 Noroeste 50 Noroeste 0 -- -- 63
2018-02-06 20:00:00 -0.1 31 Noroeste 41 Noroeste 0 -- -- 62
2018-02-06 19:00:00 0.1 31 Noroeste 45 Noroeste 0 -- -- 61
2018-02-06 18:00:00 1 31 Noroeste 44 Noroeste 0 -- -- 58
2018-02-06 17:00:00 1.9 27 Noroeste 53 Noroeste 0 -- -- 57
2018-02-06 16:00:00 1.9 31 Noroeste 44 Noroeste 0 -- -- 57
2018-02-06 15:00:00 2.4 28 Noroeste 43 Noroeste 0 -- -- 58
2018-02-06 14:00:00 2.3 29 Noroeste 42 Noroeste 0 -- -- 58
2018-02-06 13:00:00 1.6 27 Noroeste 38 Noroeste 0 -- -- 52
2018-02-06 12:00:00 0.7 24 Noroeste 35 Noroeste 0 -- -- 56
2018-02-06 11:00:00 0 25 Noroeste 39 Noroeste 0 -- -- 64
2018-02-06 10:00:00 -0.4 24 Noroeste 41 Noroeste 0 -- -- 69
2018-02-06 09:00:00 -0.7 29 Noroeste 43 Noroeste 0 -- -- 74
2018-02-06 08:00:00 -0.7 28 Noroeste 45 Noroeste 0 -- -- 77
2018-02-06 07:00:00 -0.3 31 Noroeste 52 Noroeste 0 -- -- 75
2018-02-06 06:00:00 0 33 Noroeste 48 Noroeste 0 -- -- 77
2018-02-06 05:00:00 0.7 26 Noroeste 41 Noroeste 0 -- -- 77
2018-02-06 04:00:00 0.8 24 Noroeste 38 Noroeste 0 -- -- 81
2018-02-06 03:00:00 0.8 17 Noroeste 27 Noroeste -- -- -- 94
2018-02-06 02:00:00 0 3 Noroeste 5 Noroeste 0 -- -- 97
2018-02-06 01:00:00 0.2 4 Noroeste 6 Noroeste 0 -- -- 97
2018-02-06 00:00:00 0.6 3 Noroeste 4 Noroeste 0 -- -- 96
2018-02-05 23:00:00 0.9 0 Calma 3 Sudoeste 0 -- -- 96
2018-02-05 22:00:00 0.9 0 Calma -- -- 0 -- -- 96
2018-02-05 21:00:00 0.8 3 Sur 5 Sur 0.4 -- -- 96
2018-02-05 20:00:00 1 3 Sudoeste 6 Sudeste 0 -- -- 97
2018-02-05 19:00:00 1 2 Sudeste 5 Oeste 0 -- -- 97
2018-02-05 18:00:00 1.1 3 Oeste 6 Noroeste 0 -- -- 97
2018-02-05 17:00:00 1 2 Noroeste 4 Oeste 0.2 -- -- 96
2018-02-05 16:00:00 0.8 0 Calma 5 Noroeste 0.2 -- -- 96
2018-02-05 15:00:00 0.6 4 Noroeste 6 Noroeste 0.8 -- -- 96
2018-02-05 14:00:00 0.5 2 Sudeste -- -- 2.4 -- -- 95
2018-02-05 13:00:00 1.2 6 Oeste 10 Oeste 0.6 -- -- 95
2018-02-05 12:00:00 1.5 7 Oeste 9 Oeste 0 -- -- 97
2018-02-05 11:00:00 1.3 2 Este 5 Oeste 0.2 -- -- 98
2018-02-05 10:00:00 0.8 4 Oeste 5 Oeste 0 -- -- 98
2018-02-05 09:00:00 0.4 2 Este 2 Este 0 -- -- 98
2018-02-05 08:00:00 0.3 2 Oeste 4 Oeste 0 -- -- 98
2018-02-05 07:00:00 0.4 3 Este 5 Este 0 -- -- 97
2018-02-05 06:00:00 0.6 5 Sur 8 Sudoeste 0 -- -- 98
2018-02-05 05:00:00 0.2 2 Sudoeste 5 Sudoeste 0.2 -- -- 98
2018-02-05 04:00:00 0.2 4 Norte 6 Nordeste 0 -- -- 97
2018-02-05 03:00:00 0.3 4 Oeste 12 Sudoeste 0 -- -- 97
2018-02-05 02:00:00 0.3 6 Nordeste 13 Sur 0 -- -- 96
2018-02-05 01:00:00 0.1 4 Sudeste 8 Noroeste 0.2 -- -- 97
2018-02-05 00:00:00 0 3 Oeste 5 Nordeste 0 -- -- 96
2018-02-04 23:00:00 0.2 3 Oeste 3 Oeste 1.4 -- -- 95
2018-02-04 22:00:00 0.4 0 Calma 3 Sudeste 1 -- -- 95
2018-02-04 21:00:00 0.7 0 Calma 4 Sudeste 1.4 -- -- 94
2018-02-04 20:00:00 1.6 0 Calma 4 Este 1 -- -- 93
2018-02-04 19:00:00 1.9 4 Sudoeste 5 Sudoeste 0.6 -- -- 93
2018-02-04 18:00:00 2.4 0 Calma 3 Sudeste 0.4 -- -- 92
2018-02-04 17:00:00 2.6 2 Oeste 4 Sudeste 0.4 -- -- 91
2018-02-04 16:00:00 2.6 2 Sur 5 Sur 0.4 -- -- 91
2018-02-04 15:00:00 2.4 3 Noroeste 11 Noroeste 0.6 -- -- 91
2018-02-04 14:00:00 2.8 7 Norte 12 Norte 0.4 -- -- 90
2018-02-04 13:00:00 3.2 5 Nordeste 9 Nordeste 0 -- -- 89
2018-02-04 12:00:00 3 6 Noroeste 9 Noroeste 0 -- -- 89
2018-02-04 11:00:00 2.4 2 Noroeste 5 Noroeste 0 -- -- 94
2018-02-04 10:00:00 1.3 2 Norte 8 Norte 0 -- -- 95
2018-02-04 09:00:00 1.1 6 Sur 8 Sur 0 -- -- 96
2018-02-04 08:00:00 0.8 4 Sur 6 Sur 0 -- -- 97
2018-02-04 07:00:00 0.7 4 Sudeste 6 Sudeste 0 -- -- 97
2018-02-04 06:00:00 0.6 2 Sudeste 6 Este 0 -- -- 96
2018-02-04 05:00:00 0.8 0 Calma 6 Sudeste 0 -- -- 96
2018-02-04 04:00:00 0.8 4 Este 12 Sudeste 0 -- -- 96
2018-02-04 03:00:00 1 4 Sudeste 15 Nordeste 0 -- -- 94
2018-02-04 02:00:00 1.6 13 Noroeste 19 Noroeste 0 -- -- 96
2018-02-04 01:00:00 0.9 2 Sudeste 7 Sudeste 0.2 -- -- 97
2018-02-04 00:00:00 1 5 Noroeste 8 Noroeste 0 -- -- 96
2018-02-03 23:00:00 1.2 3 Sudeste 9 Noroeste 0 -- -- 97
2018-02-03 22:00:00 1.5 3 Norte 9 Este 0 -- -- 96
2018-02-03 21:00:00 1.3 3 Este 13 Este 0 -- -- 96
2018-02-03 20:00:00 1.6 5 Este 9 Este 0 -- -- 96
2018-02-03 19:00:00 1.5 0 Calma 11 Nordeste 0.2 -- -- 95
2018-02-03 18:00:00 1.7 9 Nordeste 16 Norte 0.6 -- -- 94
2018-02-03 17:00:00 2.6 10 Norte 18 Norte 1.2 -- -- 92
2018-02-03 16:00:00 3.5 12 Norte 25 Noroeste 0 -- -- 89
2018-02-03 15:00:00 4 18 Noroeste 33 Oeste 0 -- -- 81
2018-02-03 14:00:00 3.6 23 Oeste 33 Oeste 0 -- -- 81
2018-02-03 13:00:00 3.8 23 Noroeste 35 Noroeste 0 -- -- 78
2018-02-03 12:00:00 3.4 19 Noroeste 38 Oeste 0 -- -- 76
2018-02-03 11:00:00 2.9 28 Oeste 42 Noroeste 0 -- -- 77
2018-02-03 10:00:00 2.5 24 Noroeste 38 Noroeste 0 -- -- 78
2018-02-03 09:00:00 0.8 17 Noroeste 32 Noroeste 0 -- -- 85
2018-02-03 08:00:00 0.7 21 Noroeste 32 Noroeste 0 -- -- 83
2018-02-03 07:00:00 0.5 23 Noroeste 33 Noroeste 0 -- -- 80
2018-02-03 06:00:00 0.5 23 Noroeste 36 Noroeste 0 -- -- 77
2018-02-03 05:00:00 0.2 26 Noroeste 41 Noroeste 0 -- -- 77
2018-02-03 04:00:00 0.4 31 Noroeste 43 Noroeste 0 -- -- 78
2018-02-03 03:00:00 1 31 Noroeste 44 Noroeste 0 -- -- 73
2018-02-03 02:00:00 0.2 26 Noroeste 39 Noroeste 0 -- -- 75
2018-02-03 01:00:00 0.6 25 Noroeste 39 Noroeste 0 -- -- 68
2018-02-03 00:00:00 0.8 27 Noroeste 40 Noroeste 0 -- -- 68
2018-02-02 23:00:00 0.9 23 Noroeste 33 Noroeste 0 -- -- 65
2018-02-02 22:00:00 0.9 27 Noroeste 41 Noroeste 0 -- -- 62
2018-02-02 21:00:00 1.3 30 Noroeste 46 Noroeste 0 -- -- 61
2018-02-02 20:00:00 0.7 24 Noroeste 34 Noroeste 0 -- -- 65
2018-02-02 19:00:00 0.6 14 Noroeste 31 Norte 0 -- -- 60
2018-02-02 18:00:00 2.2 23 Norte 49 Noroeste 0 -- -- 53
2018-02-02 17:00:00 3.6 39 Norte 54 Norte 0 -- -- 48
2018-02-02 16:00:00 3.8 42 Noroeste 59 Norte 0 -- -- 50
2018-02-02 15:00:00 4.5 39 Noroeste 54 Noroeste 0 -- -- 43
2018-02-02 14:00:00 4.6 36 Noroeste 56 Noroeste 0 -- -- 44
2018-02-02 13:00:00 4.2 41 Noroeste 57 Noroeste 0 -- -- 46
2018-02-02 12:00:00 4.2 30 Norte 48 Noroeste 0 -- -- 45
2018-02-02 11:00:00 3.1 33 Noroeste 48 Noroeste 0 -- -- 55
2018-02-02 10:00:00 2.1 25 Noroeste 41 Noroeste 0 -- -- 66
2018-02-02 09:00:00 0.6 22 Noroeste 38 Noroeste 0 -- -- 72
2018-02-02 08:00:00 -0.1 19 Noroeste 30 Noroeste 0 -- -- 73
2018-02-02 07:00:00 -0.4 20 Noroeste 28 Noroeste 0 -- -- 78
2018-02-02 06:00:00 -0.9 8 Noroeste 14 Norte 0 -- -- 79
2018-02-02 05:00:00 -0.6 5 Noroeste 14 Noroeste 0 -- -- 76
2018-02-02 04:00:00 -1.1 5 Oeste 10 Noroeste 0 -- -- 77
2018-02-02 03:00:00 -0.8 7 Noroeste 15 Noroeste 0 -- -- 79
2018-02-02 02:00:00 -0.4 13 Noroeste 16 Noroeste 0 -- -- 77
2018-02-02 01:00:00 0.7 9 Noroeste 18 Oeste 0 -- -- 74
2018-02-02 00:00:00 0.3 13 Noroeste 25 Noroeste 0 -- -- 77
2018-02-01 23:00:00 1.2 17 Noroeste 37 Noroeste 0 -- -- 75
2018-02-01 22:00:00 1.9 30 Noroeste 45 Noroeste 0 -- -- 72
2018-02-01 21:00:00 2 31 Noroeste 41 Noroeste 0 -- -- 72
2018-02-01 20:00:00 2.1 24 Noroeste 39 Noroeste 0 -- -- 72
2018-02-01 19:00:00 2.1 18 Noroeste 37 Noroeste 0 -- -- 77
2018-02-01 18:00:00 2.8 21 Noroeste 37 Noroeste 0 -- -- 76
2018-02-01 17:00:00 4.4 23 Noroeste 40 Noroeste 0 -- -- 69
2018-02-01 16:00:00 4.8 28 Noroeste 44 Noroeste 0 -- -- 66
2018-02-01 15:00:00 5.2 34 Noroeste 50 Noroeste 0 -- -- 67
2018-02-01 14:00:00 6.8 34 Noroeste 46 Noroeste 0 -- -- 63
2018-02-01 13:00:00 6.9 24 Norte 42 Norte 0 -- -- 63
2018-02-01 12:00:00 6.3 27 Noroeste 42 Noroeste 0 -- -- 70
2018-02-01 11:00:00 6 17 Norte 39 Noroeste 0 -- -- 72
2018-02-01 10:00:00 5.3 23 Noroeste 34 Noroeste 0 -- -- 78
2018-02-01 09:00:00 3.1 11 Noroeste 17 Noroeste 0 -- -- 95
2018-02-01 08:00:00 2.7 0 Calma 5 Nordeste 0 -- -- 94
2018-02-01 07:00:00 2.6 3 Oeste 6 Sudoeste 0 -- -- 94
2018-02-01 06:00:00 2.8 0 Calma 8 Norte 0 -- -- 94
2018-02-01 05:00:00 2.3 3 Oeste 7 Noroeste 0 -- -- 92
2018-02-01 04:00:00 2.2 3 Sudeste 9 Sudoeste 0 -- -- 92
2018-02-01 03:00:00 1.5 4 Noroeste 6 Norte 0 -- -- 90
2018-02-01 02:00:00 2.3 2 Oeste 6 Sur 0 -- -- 88
2018-02-01 01:00:00 2.6 3 Norte 4 Norte 0 -- -- 86
2018-02-01 00:00:00 3.4 3 Nordeste 7 Sudeste 0 -- -- 85
2018-01-31 23:00:00 2.7 4 Oeste 7 Sudoeste 0 -- -- 83
2018-01-31 22:00:00 5.4 5 Sudoeste 8 Sur 0 -- -- 75
2018-01-31 21:00:00 5 3 Sudoeste 8 Sudoeste 0 -- -- 74
2018-01-31 20:00:00 6.6 7 Sur 10 Sur 0 -- -- 63
2018-01-31 19:00:00 7.2 7 Sudoeste 9 Sudoeste 0 -- -- 61
2018-01-31 18:00:00 10 2 Sudoeste 8 Sur 0 -- -- 56
2018-01-31 17:00:00 11.8 4 Sudeste 14 Norte 0 -- -- 57
2018-01-31 16:00:00 13 9 Noroeste 13 Noroeste 0 -- -- 52
2018-01-31 15:00:00 13.2 9 Noroeste 15 Noroeste 0 -- -- 51
2018-01-31 14:00:00 13.2 7 Sur 14 Sur 0 -- -- 47
2018-01-31 13:00:00 10.8 5 Este 10 Este 0 -- -- 61
2018-01-31 12:00:00 6.8 4 Norte 10 Sudeste 0 -- -- 77
2018-01-31 11:00:00 4.1 4 Sudeste 7 Norte 0 -- -- 87
2018-01-31 10:00:00 1.9 3 Norte 6 Oeste 0 -- -- 91
2018-01-31 09:00:00 -0.4 4 Oeste 6 Oeste 0 -- -- 93
2018-01-31 08:00:00 -0.5 0 Calma 5 Oeste 0 -- -- 95
2018-01-31 07:00:00 -0.2 0 Calma 4 Norte 0 -- -- 94
2018-01-31 06:00:00 0.4 2 Nordeste 5 Norte 0 -- -- 93
2018-01-31 05:00:00 0.2 -- -- -- -- 0 -- -- 95
2018-01-31 04:00:00 0.9 3 Sur 5 Sur 0 -- -- 92
2018-01-31 03:00:00 1.2 2 Sudeste 4 Este 0 -- -- 91
2018-01-31 02:00:00 1.6 3 Nordeste 6 Norte 0 -- -- 91
2018-01-31 01:00:00 2.4 0 Calma 5 Sudoeste 0 -- -- 89
2018-01-31 00:00:00 3.4 0 Calma 4 Sudoeste 0 -- -- 85
2018-01-30 23:00:00 3.8 0 Calma 4 Oeste 0 -- -- 84
2018-01-30 22:00:00 4.4 3 Noroeste 5 Noroeste 0 -- -- 83
2018-01-30 21:00:00 6 0 Calma 5 Sudeste 0 -- -- 76
2018-01-30 20:00:00 6.7 0 Calma 12 Sur 0 -- -- 77
2018-01-30 19:00:00 8.1 4 Sur 13 Sudoeste 0 -- -- 70
2018-01-30 18:00:00 9.1 10 Sudoeste 12 Sudoeste 0 -- -- 70
2018-01-30 17:00:00 13.3 7 Norte 10 Norte 0 -- -- 55
2018-01-30 16:00:00 13.4 4 Noroeste 10 Oeste 0 -- -- 54
2018-01-30 15:00:00 12.6 4 Noroeste 12 Nordeste 0 -- -- 56
2018-01-30 14:00:00 10.9 4 Norte 10 Noroeste 0 -- -- 61
2018-01-30 13:00:00 9 5 Norte 8 Noroeste 0 -- -- 69
2018-01-30 12:00:00 6.8 2 Norte 7 Sudeste 0 -- -- 78
2018-01-30 11:00:00 4.4 0 Calma 5 Sudeste 0 -- -- 85
2018-01-30 10:00:00 2.2 3 Nordeste 5 Nordeste 0 -- -- 93
2018-01-30 09:00:00 0.7 2 Este 4 Nordeste 0 -- -- 97
2018-01-30 08:00:00 -0.1 0 Calma 3 Norte 0 -- -- 94
2018-01-30 07:00:00 -0.3 4 Noroeste 6 Noroeste 0 -- -- 94
2018-01-30 06:00:00 0.7 3 Sudeste 5 Este 0 -- -- 94
2018-01-30 05:00:00 0.7 2 Noroeste 8 Noroeste 0 -- -- 93
2018-01-30 04:00:00 1.5 3 Sudeste 6 Sur 0 -- -- 92
2018-01-30 03:00:00 2.5 0 Calma 5 Noroeste 0 -- -- 92
2018-01-30 02:00:00 2 3 Oeste 6 Noroeste 0 -- -- 88
2018-01-30 01:00:00 3 2 Nordeste 5 Este 0 -- -- 85
2018-01-30 00:00:00 3.7 0 Calma 5 Sudoeste 0 -- -- 85
2018-01-29 23:00:00 4.2 0 Calma 4 Oeste 0 -- -- 81
2018-01-29 22:00:00 5.1 3 Oeste 6 Noroeste 0 -- -- 77
2018-01-29 21:00:00 6.2 3 Oeste 9 Sudoeste 0 -- -- 74
2018-01-29 20:00:00 7.2 6 Sudoeste 8 Sudoeste 0 -- -- 71
2018-01-29 19:00:00 8.7 4 Sudoeste 9 Sudoeste 0 -- -- 65
2018-01-29 18:00:00 10.3 4 Sudoeste 8 Sudoeste 0 -- -- 59
2018-01-29 17:00:00 12.8 2 Sudeste 6 Norte 0 -- -- 53
2018-01-29 16:00:00 13.3 4 Nordeste 10 Norte 0 -- -- 49
2018-01-29 15:00:00 12.9 4 Nordeste 8 Nordeste 0 -- -- 50
2018-01-29 14:00:00 11.3 5 Este 9 Este 0 -- -- 58
2018-01-29 13:00:00 8.7 3 Noroeste 8 Noroeste 0 -- -- 69
2018-01-29 12:00:00 6.5 4 Este 7 Norte 0 -- -- 75
2018-01-29 11:00:00 4.4 3 Norte 6 Este 0 -- -- 82
2018-01-29 10:00:00 1.7 0 Calma 4 Este 0 -- -- 89
2018-01-29 09:00:00 -0.2 0 Calma 3 Este 0 -- -- 95
2018-01-29 08:00:00 -0.6 0 Calma 3 Sur 0 -- -- 93
2018-01-29 07:00:00 -0.6 0 Calma 4 Oeste 0 -- -- 92
2018-01-29 06:00:00 -0.4 3 Noroeste 4 Nordeste 0 -- -- 90
2018-01-29 05:00:00 0.5 0 Calma 4 Noroeste 0 -- -- 90
2018-01-29 04:00:00 0.8 0 Calma 5 Oeste 0 -- -- 89
2018-01-29 03:00:00 1.1 2 Este 3 Este 0 -- -- 88
2018-01-29 02:00:00 1.7 0 Calma 5 Sudoeste 0 -- -- 85
2018-01-29 01:00:00 2.5 2 Sudoeste 5 Oeste 0 -- -- 82
2018-01-29 00:00:00 3.2 0 Calma 4 Norte 0 -- -- 79
2018-01-28 23:00:00 3.9 2 Oeste 5 Oeste 0 -- -- 76
2018-01-28 22:00:00 5.4 2 Oeste 8 Sur 0 -- -- 69
2018-01-28 21:00:00 6.4 4 Sur 7 Sur 0 -- -- 67
2018-01-28 20:00:00 7.4 5 Sur 10 Sur 0 -- -- 63
2018-01-28 19:00:00 8.3 3 Sudeste 9 Sur 0 -- -- 62
2018-01-28 18:00:00 9.9 4 Oeste 17 Oeste 0 -- -- 54
2018-01-28 17:00:00 13.3 5 Oeste 9 Noroeste 0 -- -- 44
2018-01-28 16:00:00 13.2 5 Norte 13 Norte 0 -- -- 44
2018-01-28 15:00:00 12.8 4 Noroeste 9 Noroeste 0 -- -- 44
2018-01-28 14:00:00 10.7 2 Oeste 8 Oeste 0 -- -- 46
2018-01-28 13:00:00 8.1 3 Nordeste 8 Noroeste 0 -- -- 50
2018-01-28 12:00:00 6 4 Este 8 Este 0 -- -- 62
2018-01-28 11:00:00 3.7 0 Calma 5 Este 0 -- -- 69
2018-01-28 10:00:00 0.7 2 Este 5 Este 0 -- -- 81
2018-01-28 09:00:00 -1.4 2 Oeste 3 Oeste 0 -- -- 83
2018-01-28 08:00:00 -1.9 0 Calma 3 Sudeste 0 -- -- 85
2018-01-28 07:00:00 -1.8 2 Oeste 4 Noroeste 0 -- -- 84
2018-01-28 06:00:00 -1.7 3 Sudoeste 6 Sudoeste 0 -- -- 85
2018-01-28 05:00:00 -1.3 4 Sudoeste 5 Sudoeste 0 -- -- 83
2018-01-28 04:00:00 -1.5 0 Calma 5 Nordeste 0 -- -- 82
2018-01-28 03:00:00 -0.8 3 Sudeste 8 Noroeste 0 -- -- 81
2018-01-28 02:00:00 -0.8 5 Noroeste 9 Sudeste 0 -- -- 80
2018-01-28 01:00:00 -0.6 0 Calma 6 Nordeste 0 -- -- 78
2018-01-28 00:00:00 0 3 Sudoeste 5 Norte 0 -- -- 76
2018-01-27 23:00:00 1.3 4 Sudoeste 6 Sudoeste 0 -- -- 71
2018-01-27 22:00:00 2 5 Sudoeste 9 Sudoeste 0 -- -- 67
2018-01-27 21:00:00 2.9 6 Sur 9 Sur 0 -- -- 63
2018-01-27 20:00:00 3.4 5 Sur 8 Sudeste 0 -- -- 61
2018-01-27 19:00:00 4.3 3 Sudeste 22 Noroeste 0 -- -- 57
2018-01-27 18:00:00 4.9 14 Noroeste 32 Noroeste 0 -- -- 57
2018-01-27 17:00:00 7.8 25 Noroeste 35 Noroeste 0 -- -- 49
2018-01-27 16:00:00 8.3 25 Noroeste 39 Noroeste 0 -- -- 48
2018-01-27 15:00:00 8.5 25 Noroeste 39 Noroeste 0 -- -- 47
2018-01-27 14:00:00 8.2 25 Noroeste 36 Noroeste 0 -- -- 49
2018-01-27 13:00:00 7.5 24 Noroeste 43 Noroeste 0 -- -- 53
2018-01-27 12:00:00 6.5 28 Noroeste 44 Noroeste 0 -- -- 56
2018-01-27 11:00:00 5.4 27 Noroeste 41 Noroeste 0 -- -- 59
2018-01-27 10:00:00 4.3 27 Noroeste 41 Noroeste 0 -- -- 60
2018-01-27 09:00:00 3.3 28 Noroeste 40 Noroeste 0 -- -- 64
2018-01-27 08:00:00 3 27 Noroeste 40 Noroeste 0 -- -- 68
2018-01-27 07:00:00 2.9 27 Noroeste 48 Noroeste 0 -- -- 67
2018-01-27 06:00:00 2.6 33 Noroeste 49 Noroeste 0 -- -- 72
2018-01-27 05:00:00 2.2 29 Noroeste 46 Noroeste 0 -- -- 80
2018-01-27 04:00:00 2.2 32 Noroeste 49 Noroeste 0 -- -- 80
2018-01-27 03:00:00 2.5 29 Noroeste 42 Noroeste 0 -- -- 78
2018-01-27 02:00:00 3 30 Noroeste 43 Noroeste 0 -- -- 74
2018-01-27 01:00:00 3.1 29 Noroeste 52 Noroeste 0 -- -- 71
2018-01-27 00:00:00 3.3 32 Noroeste 50 Noroeste 0 -- -- 73
2018-01-26 23:00:00 3.3 34 Noroeste 53 Noroeste 0 -- -- 78
2018-01-26 22:00:00 3.4 33 Noroeste 54 Noroeste 0 -- -- 78
2018-01-26 21:00:00 3.2 33 Noroeste 49 Noroeste 0 -- -- 79
2018-01-26 20:00:00 2.8 33 Noroeste 48 Norte 0 -- -- 82
2018-01-26 19:00:00 3.3 33 Noroeste 48 Noroeste 0 -- -- 79
2018-01-26 18:00:00 3.9 38 Noroeste 53 Noroeste 0 -- -- 75
2018-01-26 17:00:00 4.6 35 Noroeste 53 Noroeste 0 -- -- 71
2018-01-26 16:00:00 5.1 35 Noroeste 59 Noroeste 0 -- -- 71
2018-01-26 15:00:00 5.1 32 Noroeste 50 Noroeste 0 -- -- 73
2018-01-26 14:00:00 5.4 32 Noroeste 50 Noroeste 0 -- -- 68
2018-01-26 13:00:00 5.2 35 Noroeste 54 Noroeste 0 -- -- 71
2018-01-26 12:00:00 4.5 41 Noroeste 59 Noroeste 0 -- -- 79
2018-01-26 11:00:00 4.6 37 Noroeste 58 Noroeste 0 -- -- 76
2018-01-26 10:00:00 4.4 39 Noroeste 54 Noroeste 0 -- -- 73
2018-01-26 09:00:00 3.7 33 Noroeste 53 Noroeste 0.2 -- -- 76
2018-01-26 08:00:00 3.9 38 Noroeste 52 Noroeste 0 -- -- 75
2018-01-26 07:00:00 4 31 Noroeste 52 Noroeste 0 -- -- 72
2018-01-26 06:00:00 3.9 27 Noroeste 49 Noroeste 0 -- -- 76
2018-01-26 05:00:00 3.9 31 Noroeste 45 Noroeste 0 -- -- 77
2018-01-26 04:00:00 4 29 Noroeste 51 Noroeste 0 -- -- 77
2018-01-26 03:00:00 4.2 31 Noroeste 45 Noroeste 0 -- -- 77
2018-01-26 02:00:00 4 29 Noroeste 42 Noroeste 0 -- -- 79
2018-01-26 01:00:00 4 27 Noroeste 39 Noroeste 0 -- -- 80
2018-01-26 00:00:00 4 30 Noroeste 45 Noroeste 0 -- -- 84
2018-01-25 23:00:00 4 21 Noroeste 29 Noroeste 0 -- -- 89
2018-01-25 22:00:00 3.9 15 Noroeste 29 Noroeste 1 -- -- 93
2018-01-25 21:00:00 5.2 18 Norte 25 Norte 0.8 -- -- 92
2018-01-25 20:00:00 6.2 2 Oeste 14 Sudeste 0.4 -- -- 85
2018-01-25 19:00:00 6.9 10 Sur 15 Sur 0 -- -- 77
2018-01-25 18:00:00 7.8 12 Sudoeste 21 Sudoeste 0 -- -- 74
2018-01-25 17:00:00 8.7 13 Sur 23 Sur 0 -- -- 72
2018-01-25 16:00:00 9.2 14 Sur 27 Sur 0 -- -- 73
2018-01-25 15:00:00 9.9 12 Sur 28 Sur 0 -- -- 68
2018-01-25 14:00:00 10 18 Sudeste 32 Sur 0 -- -- 73
2018-01-25 13:00:00 9.3 22 Sur 32 Sudeste 0 -- -- 76
2018-01-25 12:00:00 8.2 19 Sudeste 31 Sur 0 -- -- 81
2018-01-25 11:00:00 6.9 25 Sur 32 Sur 0 -- -- 83
2018-01-25 10:00:00 6.8 25 Sur 33 Sur 0 -- -- 82
2018-01-25 09:00:00 5.7 21 Sur 34 Sur 0 -- -- 90
2018-01-25 08:00:00 6.4 26 Sur 33 Sur 0 -- -- 84
2018-01-25 07:00:00 6.9 23 Sur 32 Sur 0 -- -- 82
2018-01-25 06:00:00 7.6 21 Sur 28 Sur 0 -- -- 77
2018-01-25 05:00:00 7.4 17 Sur 23 Sur 0 -- -- 72
2018-01-25 04:00:00 7 12 Sudeste 19 Sudeste 0 -- -- 79
2018-01-25 03:00:00 6.8 5 Este 23 Sur 0 -- -- 79
2018-01-25 02:00:00 8 17 Sur 23 Sur 0 -- -- 80
2018-01-25 01:00:00 8 10 Sudeste 20 Este 0 -- -- 80
2018-01-25 00:00:00 7.7 9 Sudeste 20 Sur 0 -- -- 82
2018-01-24 23:00:00 8.5 18 Sur 30 Sur 0 -- -- 82
2018-01-24 22:00:00 9.3 19 Sur 26 Sur 0 -- -- 79
2018-01-24 21:00:00 9.7 19 Sur 27 Sur 0 -- -- 78
2018-01-24 20:00:00 9.8 12 Sudeste 24 Sur 0 -- -- 76
2018-01-24 19:00:00 10.1 10 Este 27 Sudoeste 0 -- -- 71
2018-01-24 18:00:00 11.7 20 Sudoeste 32 Sur 0 -- -- 62
2018-01-24 17:00:00 13.4 23 Sudoeste 37 Sur 0 -- -- 56
2018-01-24 16:00:00 14.4 26 Sudoeste 34 Sur 0 -- -- 49
2018-01-24 15:00:00 15.4 15 Sur 27 Sur 0 -- -- 47
2018-01-24 14:00:00 14.2 18 Sur 29 Sur 0 -- -- 53
2018-01-24 13:00:00 12.7 21 Sur 28 Sur 0 -- -- 58
2018-01-24 12:00:00 11.8 16 Sur 26 Sur 0 -- -- 60
2018-01-24 11:00:00 9.8 20 Sur 28 Sur 0 -- -- 66
2018-01-24 10:00:00 8.6 15 Sur 27 Sur 0 -- -- 70
2018-01-24 09:00:00 7.1 15 Sur 24 Sur 0 -- -- 87
2018-01-24 08:00:00 3.9 10 Sudeste 19 Sudeste 0 -- -- 97
2018-01-24 07:00:00 5 5 Sudeste 28 Sur 0 -- -- 91
2018-01-24 06:00:00 5.7 22 Sur 33 Sur 0 -- -- 94
2018-01-24 05:00:00 5.3 15 Sur 28 Sur 0 -- -- 96
2018-01-24 04:00:00 4 4 Sudeste 13 Sur 0 -- -- 95
2018-01-24 03:00:00 4.1 2 Noroeste 5 Nordeste 0 -- -- 95
2018-01-24 02:00:00 4.2 3 Norte 6 Este 0 -- -- 94
2018-01-24 01:00:00 5.3 0 Calma 4 Norte 0 -- -- 93
2018-01-24 00:00:00 5.9 0 Calma -- -- 0 -- -- 93
2018-01-23 23:00:00 6.6 3 Noroeste 6 Sudoeste 0 -- -- 91
2018-01-23 22:00:00 8.1 4 Sudoeste 8 Sudoeste 0 -- -- 84
2018-01-23 21:00:00 8.9 6 Sur 8 Sudoeste 0 -- -- 84
2018-01-23 20:00:00 9.4 5 Sur 11 Sur 0 -- -- 84
2018-01-23 19:00:00 10.4 3 Sur 10 Sudeste 0 -- -- 79
2018-01-23 18:00:00 12.2 7 Oeste 19 Oeste 0 -- -- 72
2018-01-23 17:00:00 15.5 15 Oeste 19 Oeste 0 -- -- 62
2018-01-23 16:00:00 16.7 8 Noroeste 15 Oeste 0 -- -- 54
2018-01-23 15:00:00 16.3 9 Norte 17 Norte 0 -- -- 55
2018-01-23 14:00:00 14.8 4 Nordeste 12 Norte 0 -- -- 62
2018-01-23 13:00:00 13.4 5 Sudeste 9 Este 0 -- -- 66
2018-01-23 12:00:00 12.2 5 Este 10 Sudeste 0 -- -- 69
2018-01-23 11:00:00 9.6 0 Calma 5 Este 0 -- -- 81
2018-01-23 10:00:00 6.7 4 Este 5 Este 0 -- -- 86
2018-01-23 09:00:00 6.7 3 Noroeste 5 Noroeste 0 -- -- 83
2018-01-23 08:00:00 7.2 6 Sudoeste 10 Noroeste 0 -- -- 83
2018-01-23 07:00:00 9 8 Noroeste 17 Noroeste 0 -- -- 77
2018-01-23 06:00:00 9.8 11 Noroeste 34 Noroeste 0 -- -- 73
2018-01-23 05:00:00 10.6 27 Noroeste 38 Noroeste 0 -- -- 70
2018-01-23 04:00:00 10.2 20 Noroeste 30 Noroeste 0 -- -- 71
2018-01-23 03:00:00 10.5 21 Noroeste 37 Noroeste 0 -- -- 70
2018-01-23 02:00:00 10.2 27 Noroeste 37 Noroeste 0 -- -- 71
2018-01-23 01:00:00 9.8 27 Oeste 36 Oeste 0 -- -- 71
2018-01-23 00:00:00 10 21 Noroeste 39 Noroeste 0 -- -- 71
2018-01-22 23:00:00 10.4 27 Noroeste 39 Noroeste 0 -- -- 75
2018-01-22 22:00:00 10.6 26 Noroeste 37 Noroeste 0 -- -- 76
2018-01-22 21:00:00 10.8 27 Noroeste 44 Noroeste 0 -- -- 77
2018-01-22 20:00:00 11.2 27 Noroeste 43 Noroeste 0 -- -- 76
2018-01-22 19:00:00 11.1 32 Noroeste 43 Noroeste 0 -- -- 77
2018-01-22 18:00:00 11.5 30 Noroeste 49 Noroeste 0 -- -- 77
2018-01-22 17:00:00 12.7 31 Noroeste 45 Noroeste 0 -- -- 71
2018-01-22 16:00:00 13 28 Noroeste 45 Noroeste 0 -- -- 66
2018-01-22 15:00:00 13.5 30 Noroeste 42 Noroeste 0 -- -- 61
2018-01-22 14:00:00 13.7 27 Noroeste 38 Noroeste 0 -- -- 60
2018-01-22 13:00:00 13.1 27 Noroeste 37 Noroeste 0 -- -- 61
2018-01-22 12:00:00 13.1 20 Noroeste 35 Noroeste 0 -- -- 59
2018-01-22 11:00:00 11.9 20 Noroeste 31 Noroeste 0 -- -- 64
2018-01-22 10:00:00 10.7 15 Noroeste 27 Noroeste 0 -- -- 67
2018-01-22 09:00:00 8.8 10 Oeste 17 Noroeste 0 -- -- 74
2018-01-22 08:00:00 9.3 14 Noroeste 27 Noroeste 0 -- -- 74
2018-01-22 07:00:00 9.4 16 Oeste 28 Oeste 0 -- -- 76
2018-01-22 06:00:00 9.4 18 Oeste 33 Noroeste 0 -- -- 77
2018-01-22 05:00:00 9.6 26 Oeste 42 Noroeste 0 -- -- 78
2018-01-22 04:00:00 10.4 32 Noroeste 42 Noroeste 0 -- -- 76
2018-01-22 03:00:00 10.6 33 Noroeste 49 Noroeste 0 -- -- 76
2018-01-22 02:00:00 10.9 33 Noroeste 48 Noroeste 0 -- -- 75
2018-01-22 01:00:00 10.7 30 Noroeste 43 Noroeste 0 -- -- 77
2018-01-22 00:00:00 10.7 28 Noroeste 37 Noroeste 0 -- -- 77